createdAt,value
2022-11-04T00:02:06.942Z,1.38
2022-11-04T00:07:28.634Z,1.48
2022-11-04T00:12:30.365Z,1.38
2022-11-04T00:17:32.065Z,1.63
2022-11-04T00:22:52.956Z,1.45
2022-11-04T00:33:25.793Z,1.98
2022-11-04T00:38:27.493Z,1.65
2022-11-04T00:43:29.362Z,1.40
2022-11-04T00:48:31.047Z,1.33
2022-11-04T00:53:32.785Z,1.98
2022-11-04T00:58:34.638Z,1.50
2022-11-04T01:03:36.570Z,1.58
2022-11-04T01:08:38.378Z,2.00
2022-11-04T01:13:40.662Z,1.40
2022-11-04T01:18:42.453Z,1.70
2022-11-04T01:23:46.370Z,1.40
2022-11-04T01:28:49.600Z,1.90
2022-11-04T01:33:52.545Z,2.67
2022-11-04T01:38:58.050Z,1.60
2022-11-04T01:44:04.603Z,1.27
2022-11-04T01:49:23.651Z,1.63
2022-11-04T01:54:25.589Z,1.65
2022-11-04T01:59:38.824Z,1.70
2022-11-04T02:04:42.160Z,1.88
2022-11-04T02:09:44.663Z,1.98
2022-11-04T02:14:49.372Z,1.95
2022-11-04T02:20:25.945Z,1.63
2022-11-04T02:25:46.764Z,2.05
2022-11-04T02:36:06.566Z,1.83
2022-11-04T02:41:19.701Z,2.03
2022-11-04T02:46:41.477Z,1.80
2022-11-04T02:52:08.679Z,1.88
2022-11-04T02:57:14.353Z,2.10
2022-11-04T03:02:35.712Z,2.33
2022-11-04T03:07:41.405Z,2.25
2022-11-04T03:12:50.202Z,2.17
2022-11-04T03:18:22.493Z,2.22
2022-11-04T03:23:24.359Z,2.67
2022-11-04T03:28:43.373Z,2.00
2022-11-04T03:33:53.416Z,3.13
2022-11-04T03:38:55.166Z,1.80
2022-11-04T03:43:56.918Z,2.20
2022-11-04T03:49:00.391Z,2.33
2022-11-04T03:54:02.121Z,2.08
2022-11-04T03:59:39.665Z,2.33
2022-11-04T04:04:56.931Z,2.05
2022-11-04T04:10:25.923Z,2.15
2022-11-04T04:15:34.620Z,2.55
2022-11-04T04:20:38.693Z,1.80
2022-11-04T04:26:18.846Z,2.55
2022-11-04T04:31:40.077Z,2.07
2022-11-04T04:37:00.105Z,2.17
2022-11-04T04:42:21.840Z,2.28
2022-11-04T04:47:26.514Z,1.50
2022-11-04T04:52:32.221Z,1.88
2022-11-04T04:57:34.226Z,1.98
2022-11-04T05:02:36.153Z,2.25
2022-11-04T05:07:38.050Z,1.85
2022-11-04T05:12:58.855Z,1.52
2022-11-04T05:23:03.319Z,1.77
2022-11-04T05:28:05.653Z,1.60
2022-11-04T05:33:07.979Z,1.98
2022-11-04T05:38:10.263Z,2.63
2022-11-04T05:43:12.167Z,2.28
2022-11-04T05:48:13.936Z,2.30
2022-11-04T05:53:15.700Z,2.25
2022-11-04T05:58:17.472Z,2.55
2022-11-04T06:03:19.326Z,2.78
2022-11-04T06:08:21.071Z,2.05
2022-11-04T06:13:22.871Z,3.00
2022-11-04T06:18:24.624Z,2.40
2022-11-04T06:23:26.344Z,2.42
2022-11-04T06:28:28.228Z,2.05
2022-11-04T06:33:36.335Z,3.60
2022-11-04T06:38:39.159Z,2.63
2022-11-04T06:43:41.137Z,4.55
2022-11-04T06:48:42.849Z,3.33
2022-11-04T06:53:44.647Z,3.10
2022-11-04T06:58:50.749Z,3.65
2022-11-04T07:03:54.210Z,3.67
2022-11-04T07:08:58.511Z,3.22
2022-11-04T07:14:00.288Z,2.83
2022-11-04T07:19:02.172Z,2.80
2022-11-04T07:24:04.120Z,3.17
2022-11-04T07:29:06.753Z,2.38
2022-11-04T07:34:08.501Z,2.85
2022-11-04T07:39:10.237Z,2.65
2022-11-04T07:44:12.986Z,3.53
2022-11-04T07:49:14.731Z,3.28
2022-11-04T07:54:16.514Z,3.00
2022-11-04T07:59:18.578Z,3.35
2022-11-04T08:04:20.503Z,2.97
2022-11-04T08:09:23.420Z,3.03
2022-11-04T08:14:25.409Z,4.18
2022-11-04T08:19:27.679Z,5.57
2022-11-04T08:24:29.494Z,4.38
2022-11-04T08:29:31.295Z,3.88
2022-11-04T08:34:33.221Z,5.80
2022-11-04T08:39:35.094Z,5.05
2022-11-04T08:44:39.324Z,4.82
2022-11-04T08:49:42.021Z,12.40
2022-11-04T08:54:44.838Z,11.07
2022-11-04T08:59:46.566Z,4.93
2022-11-04T09:04:48.329Z,4.25
2022-11-04T09:09:50.018Z,3.67
2022-11-04T09:14:51.868Z,3.75
2022-11-04T09:19:53.736Z,3.95
2022-11-04T09:24:55.458Z,4.50
2022-11-04T09:29:57.167Z,5.72
2022-11-04T09:34:59.277Z,4.68
2022-11-04T09:40:01.100Z,4.70
2022-11-04T09:45:21.305Z,4.18
2022-11-04T09:55:44.313Z,3.28
2022-11-04T10:00:58.699Z,3.95
2022-11-04T10:06:38.301Z,3.55
2022-11-04T10:12:02.845Z,3.63
2022-11-04T10:17:25.459Z,3.38
2022-11-04T10:22:33.587Z,3.17
2022-11-04T10:27:38.481Z,2.80
2022-11-04T10:32:59.584Z,3.10
2022-11-04T10:38:22.554Z,2.90
2022-11-04T10:43:37.710Z,3.15
2022-11-04T10:49:02.413Z,2.63
2022-11-04T10:54:08.837Z,3.03
2022-11-04T10:59:39.678Z,4.20
2022-11-04T11:09:51.063Z,4.63
2022-11-04T11:14:55.642Z,3.88
2022-11-04T11:20:08.074Z,4.30
2022-11-04T11:25:27.224Z,5.00
2022-11-04T11:30:33.726Z,6.10
2022-11-04T11:35:42.146Z,4.88
2022-11-04T11:41:10.442Z,6.28
2022-11-04T11:46:06.294Z,6.47
2022-11-04T11:51:12.046Z,5.93
2022-11-04T11:56:40.486Z,6.45
2022-11-04T12:02:19.632Z,6.13
2022-11-04T12:13:27.706Z,7.40
2022-11-04T12:19:07.738Z,7.72
2022-11-04T12:24:35.673Z,7.78
2022-11-04T12:29:40.194Z,8.27
2022-11-04T12:35:00.458Z,7.70
2022-11-04T12:40:08.217Z,8.60
2022-11-04T12:45:44.398Z,8.85
2022-11-04T12:51:09.386Z,8.70
2022-11-04T12:56:24.207Z,9.13
2022-11-04T13:01:33.623Z,8.30
2022-11-04T13:07:17.562Z,9.60
2022-11-04T13:12:23.082Z,7.93
2022-11-04T13:17:33.878Z,9.23
2022-11-04T13:22:38.525Z,9.68
2022-11-04T13:27:45.715Z,8.60
2022-11-04T13:33:11.579Z,8.00
2022-11-04T13:38:48.900Z,10.23
2022-11-04T13:44:00.109Z,11.45
2022-11-04T13:49:06.306Z,12.30
2022-11-04T13:54:33.053Z,13.63
2022-11-04T13:59:35.439Z,14.30
2022-11-04T14:04:38.767Z,15.82
2022-11-04T14:09:43.709Z,14.35
2022-11-04T14:14:52.354Z,14.23
2022-11-04T14:19:58.043Z,12.93
2022-11-04T14:25:03.217Z,11.70
2022-11-04T14:30:05.899Z,10.60
2022-11-04T14:35:16.999Z,9.75
2022-11-04T14:40:29.072Z,7.03
2022-11-04T14:45:39.657Z,7.65
2022-11-04T14:50:45.760Z,7.93
2022-11-04T14:55:47.668Z,8.00
2022-11-04T15:00:49.439Z,8.05
2022-11-04T15:05:55.105Z,7.07
2022-11-04T15:11:02.534Z,4.80
2022-11-04T15:16:15.354Z,4.30
2022-11-04T15:21:17.322Z,3.17
2022-11-04T15:26:33.895Z,3.67
2022-11-04T15:31:37.958Z,3.50
2022-11-04T15:36:42.523Z,2.95
2022-11-04T15:42:04.218Z,3.30
2022-11-04T15:47:32.134Z,2.85
2022-11-04T15:52:33.902Z,2.50
2022-11-04T15:57:39.599Z,2.92
2022-11-04T16:02:53.870Z,3.20
2022-11-04T16:08:13.645Z,2.65
2022-11-04T16:13:18.243Z,2.28
2022-11-04T16:18:42.637Z,2.63
2022-11-04T16:23:52.766Z,2.33
2022-11-04T16:28:56.880Z,1.90
2022-11-04T16:33:58.666Z,1.73
2022-11-04T16:39:08.188Z,1.08
2022-11-04T16:44:20.643Z,1.50
2022-11-04T16:49:22.996Z,1.52
2022-11-04T16:54:24.811Z,2.78
2022-11-04T16:59:26.548Z,2.60
2022-11-04T17:04:28.334Z,2.35
2022-11-04T17:09:30.091Z,2.50
2022-11-04T17:14:32.026Z,2.20
2022-11-04T17:19:34.913Z,3.55
2022-11-04T17:24:37.975Z,4.45
2022-11-04T17:29:39.958Z,6.35
2022-11-04T17:34:43.185Z,5.20
2022-11-04T17:39:44.958Z,4.47
2022-11-04T17:44:47.967Z,3.83
2022-11-04T17:49:49.794Z,3.65
2022-11-04T17:54:51.581Z,2.90
2022-11-04T17:59:53.909Z,3.53
2022-11-04T18:04:55.809Z,4.00
2022-11-04T18:09:57.703Z,4.35
2022-11-04T18:15:01.105Z,4.60
2022-11-04T18:20:03.070Z,4.38
2022-11-04T18:25:06.396Z,4.30
2022-11-04T18:30:08.643Z,4.15
2022-11-04T18:35:10.510Z,3.42
2022-11-04T18:40:12.814Z,4.15
2022-11-04T18:45:14.554Z,3.38
2022-11-04T18:50:16.391Z,3.30
2022-11-04T18:55:18.233Z,4.43
2022-11-04T19:00:19.958Z,4.05
2022-11-04T19:05:21.892Z,3.35
2022-11-04T19:10:23.710Z,3.95
2022-11-04T19:15:26.360Z,3.80
2022-11-04T19:20:28.877Z,3.88
2022-11-04T19:25:32.285Z,3.60
2022-11-04T19:30:34.341Z,3.03
2022-11-04T19:35:37.739Z,3.35
2022-11-04T19:40:39.493Z,3.35
2022-11-04T19:45:43.751Z,3.55
2022-11-04T19:50:49.232Z,3.28
2022-11-04T19:55:53.703Z,4.18
2022-11-04T20:00:55.552Z,3.85
2022-11-04T20:05:57.788Z,4.28
2022-11-04T20:11:03.438Z,5.18
2022-11-04T20:16:21.935Z,5.43
2022-11-04T20:21:25.758Z,5.85
2022-11-04T20:26:30.284Z,6.05
2022-11-04T20:31:34.564Z,5.47
2022-11-04T20:36:37.621Z,6.30
2022-11-04T20:41:39.609Z,5.88
2022-11-04T20:46:41.890Z,6.63
2022-11-04T20:51:54.665Z,5.90
2022-11-04T20:56:57.023Z,6.43
2022-11-04T21:01:59.710Z,6.15
2022-11-04T21:07:02.804Z,6.80
2022-11-04T21:12:04.957Z,8.32
2022-11-04T21:17:06.889Z,7.35
2022-11-04T21:22:08.620Z,8.30
2022-11-04T21:27:10.333Z,7.78
2022-11-04T21:32:12.069Z,5.90
2022-11-04T21:37:13.837Z,6.88
2022-11-04T21:42:15.623Z,6.07
2022-11-04T21:47:17.362Z,6.43
2022-11-04T21:52:19.144Z,6.55
2022-11-04T21:57:20.918Z,7.00
2022-11-04T22:02:23.135Z,6.20
2022-11-04T22:07:43.951Z,6.65
2022-11-04T22:12:51.124Z,6.60
2022-11-04T22:17:53.167Z,6.18
2022-11-04T22:22:55.153Z,6.35
2022-11-04T22:27:56.939Z,5.90
2022-11-04T22:32:58.676Z,6.05
2022-11-04T22:38:00.616Z,6.00
2022-11-04T22:43:02.421Z,5.93
2022-11-04T22:48:04.415Z,6.28
2022-11-04T22:53:06.127Z,5.25
2022-11-04T22:58:07.837Z,4.88
2022-11-04T23:03:10.103Z,5.20
2022-11-04T23:08:12.249Z,5.88
2022-11-04T23:13:32.816Z,6.05
2022-11-04T23:18:43.541Z,7.05
2022-11-04T23:29:24.437Z,6.30
2022-11-04T23:34:44.984Z,4.93
2022-11-04T23:39:48.773Z,4.85
2022-11-04T23:45:10.022Z,7.15
2022-11-04T23:50:31.099Z,7.68
2022-11-04T23:55:51.511Z,6.82
